Time;durP1;ratioP1;P1;durP2;ratioP2;P2;SDS_P1;SDS_P2;PMS_P1;PMS_P2;Temp;Humidity;BMP_temperature;BMP_pressure;BME280_temperature;BME280_humidity;BME280_pressure;Samples;Min_cycle;Max_cycle;Signal;HPM_P1;HPM_P2
2023/07/02 00:00:14;;;;;;;12.15;7.05;;;;;;;25.52;53.11;98600.28;4470096;31;33773;-63
2023/07/02 00:02:42;;;;;;;12.75;6.35;;;;;;;25.40;53.42;98602.22;4475966;31;33458;-62
2023/07/02 00:05:10;;;;;;;10.18;6.80;;;;;;;25.65;52.65;98591.84;4472475;31;33923;-63
2023/07/02 00:07:38;;;;;;;8.13;5.47;;;;;;;25.58;52.79;98602.06;4468104;31;34433;-63
2023/07/02 00:10:06;;;;;;;16.73;7.90;;;;;;;25.19;53.61;98596.25;4472237;31;34928;-62
2023/07/02 00:12:33;;;;;;;11.90;6.47;;;;;;;25.52;52.78;98603.88;4470097;31;34257;-62
2023/07/02 00:15:01;;;;;;;11.68;6.47;;;;;;;25.68;52.17;98594.09;4482130;31;34645;-61
2023/07/02 00:17:30;;;;;;;12.65;7.20;;;;;;;25.69;52.17;98597.69;4468625;31;34357;-60
2023/07/02 00:20:08;;;;;;;12.43;7.70;;;;;;;25.81;51.83;98594.94;4468080;31;33419;-60
2023/07/02 00:22:36;;;;;;;10.38;7.05;;;;;;;25.81;51.69;98604.00;4470657;31;33416;-61
2023/07/02 00:25:04;;;;;;;12.45;6.93;;;;;;;25.85;51.40;98599.69;4479066;31;33807;-62
2023/07/02 00:27:31;;;;;;;11.48;6.22;;;;;;;25.75;51.58;98597.53;4470942;31;34506;-61
2023/07/02 00:29:59;;;;;;;13.70;7.43;;;;;;;25.81;51.39;98598.53;4478345;31;34036;-62
2023/07/02 00:32:27;;;;;;;10.57;6.05;;;;;;;25.58;52.01;98598.50;4479294;31;33219;-62
2023/07/02 00:34:54;;;;;;;16.15;8.38;;;;;;;25.66;51.76;98589.94;4468474;31;33974;-62
2023/07/02 00:37:22;;;;;;;13.55;6.80;;;;;;;25.26;52.86;98605.19;4473988;31;33167;-62
2023/07/02 00:39:50;;;;;;;15.52;8.00;;;;;;;25.59;52.00;98595.53;4474921;31;34224;-62
2023/07/02 00:42:17;;;;;;;12.63;6.78;;;;;;;25.59;51.75;98603.75;4473197;31;33251;-61
2023/07/02 00:44:45;;;;;;;11.93;6.65;;;;;;;25.39;52.26;98603.28;4474714;32;33417;-61
2023/07/02 00:47:13;;;;;;;12.68;6.57;;;;;;;25.26;52.64;98598.87;4470375;32;34953;-61
2023/07/02 00:49:41;;;;;;;14.32;7.70;;;;;;;25.14;52.83;98600.78;4474379;31;34572;-60
2023/07/02 00:52:08;;;;;;;9.85;6.32;;;;;;;25.17;52.81;98589.34;4476943;31;34670;-60
2023/07/02 00:54:36;;;;;;;12.18;7.00;;;;;;;25.45;51.93;98602.31;4467447;31;34716;-60
2023/07/02 00:57:05;;;;;;;11.32;7.15;;;;;;;25.32;52.10;98598.75;4474148;31;33440;-60
2023/07/02 00:59:35;;;;;;;11.45;6.28;;;;;;;25.43;51.75;98599.84;4470726;31;33303;-60
2023/07/02 01:02:04;;;;;;;21.27;7.30;;;;;;;25.49;51.55;98598.87;4476084;31;33152;-61
2023/07/02 01:04:32;;;;;;;16.12;6.87;;;;;;;25.36;51.72;98601.88;4470156;31;33659;-61
2023/07/02 01:07:00;;;;;;;16.50;7.10;;;;;;;25.30;51.91;98591.87;4480552;31;33850;-61
2023/07/02 01:09:28;;;;;;;10.98;6.12;;;;;;;25.37;51.65;98597.22;4470801;31;33885;-61
2023/07/02 01:12:00;;;;;;;10.65;5.80;;;;;;;25.48;51.47;98602.69;4473592;31;33228;-63
2023/07/02 01:14:52;;;;;;;11.18;5.97;;;;;;;25.32;51.91;98598.75;4464847;32;33353;-63
2023/07/02 01:17:20;;;;;;;9.73;5.72;;;;;;;25.54;51.35;98601.72;4429132;32;33327;-63
2023/07/02 01:19:51;;;;;;;13.18;7.37;;;;;;;25.33;51.73;98594.97;4418332;32;32517;-63
2023/07/02 01:22:21;;;;;;;7.75;5.03;;;;;;;25.47;51.33;98594.72;4424531;32;32902;-63
2023/07/02 01:24:50;;;;;;;10.15;6.45;;;;;;;25.38;51.25;98591.50;4428068;32;33676;-63
2023/07/02 01:27:20;;;;;;;11.95;6.62;;;;;;;25.27;51.54;98598.66;4423753;32;35639;-63
2023/07/02 01:29:50;;;;;;;10.93;5.95;;;;;;;25.48;50.70;98594.47;4426438;32;34905;-63
2023/07/02 01:32:20;;;;;;;9.38;5.70;;;;;;;25.48;50.78;98599.13;4424622;32;33155;-63
2023/07/02 01:34:48;;;;;;;12.02;6.72;;;;;;;24.96;51.73;98590.72;4424504;32;33521;-63
2023/07/02 01:37:16;;;;;;;10.57;6.40;;;;;;;25.20;51.12;98592.47;4421599;32;33896;-63
2023/07/02 01:39:45;;;;;;;11.10;5.93;;;;;;;25.29;50.59;98592.91;4411341;32;34908;-63
2023/07/02 01:42:18;;;;;;;11.05;5.82;;;;;;;25.28;50.61;98596.75;4415247;32;33089;-63
2023/07/02 01:44:49;;;;;;;9.25;5.50;;;;;;;25.35;50.51;98594.72;4428217;32;34798;-62
2023/07/02 01:47:17;;;;;;;10.48;6.10;;;;;;;25.06;51.15;98594.53;4440768;32;33740;-63
2023/07/02 01:49:45;;;;;;;10.25;6.35;;;;;;;24.77;51.58;98606.41;4440176;32;33530;-63
2023/07/02 01:52:12;;;;;;;9.88;5.82;;;;;;;25.13;50.89;98596.38;4443656;32;33519;-63
2023/07/02 01:54:40;;;;;;;11.12;5.68;;;;;;;24.94;51.41;98601.06;4468151;31;34315;-63
2023/07/02 01:57:09;;;;;;;10.75;5.65;;;;;;;24.89;51.50;98603.69;4475804;31;33733;-63
2023/07/02 01:59:37;;;;;;;9.43;5.40;;;;;;;24.97;51.06;98600.59;4478823;31;35136;-63
2023/07/02 02:02:05;;;;;;;10.85;6.25;;;;;;;24.90;51.66;98605.34;4479964;31;33096;-63
2023/07/02 02:04:36;;;;;;;13.40;5.78;;;;;;;25.08;50.71;98605.28;4475120;31;33596;-63
2023/07/02 02:07:03;;;;;;;10.13;5.70;;;;;;;24.87;51.08;98599.28;4467820;31;33700;-63
2023/07/02 02:09:32;;;;;;;13.80;6.55;;;;;;;24.87;51.27;98593.78;4466254;31;35219;-63
2023/07/02 02:12:00;;;;;;;9.95;6.20;;;;;;;24.72;51.54;98593.44;4471656;31;33240;-63
2023/07/02 02:14:27;;;;;;;14.32;5.37;;;;;;;24.87;51.24;98593.78;4469480;31;34181;-63
2023/07/02 02:16:55;;;;;;;12.45;6.05;;;;;;;24.57;52.04;98595.75;4470218;31;34967;-63
2023/07/02 02:19:23;;;;;;;10.65;5.78;;;;;;;24.46;52.21;98591.91;4474410;31;32498;-63
2023/07/02 02:21:50;;;;;;;9.43;4.78;;;;;;;25.05;50.56;98586.56;4471376;31;33180;-64
2023/07/02 02:24:18;;;;;;;9.88;5.60;;;;;;;24.92;50.90;98581.34;4471045;31;34043;-63
2023/07/02 02:26:46;;;;;;;9.88;5.65;;;;;;;25.09;50.50;98587.75;4472505;31;33745;-63
2023/07/02 02:29:13;;;;;;;7.72;4.20;;;;;;;24.69;51.45;98587.56;4471925;31;33375;-63
2023/07/02 02:31:42;;;;;;;7.97;5.30;;;;;;;25.02;50.45;98582.41;4464863;31;33993;-63
2023/07/02 02:34:10;;;;;;;13.62;6.35;;;;;;;24.83;50.93;98589.88;4472896;31;34143;-63
2023/07/02 02:36:38;;;;;;;11.77;6.68;;;;;;;24.97;50.52;98582.28;4475905;31;33780;-63
2023/07/02 02:39:06;;;;;;;10.30;5.55;;;;;;;24.94;50.50;98581.91;4469174;31;33524;-63
2023/07/02 02:41:33;;;;;;;14.10;5.82;;;;;;;24.64;51.44;98586.38;4466595;32;31953;-63
2023/07/02 02:44:01;;;;;;;12.52;6.70;;;;;;;24.79;50.80;98582.38;4472054;31;34612;-63
2023/07/02 02:46:29;;;;;;;10.57;5.70;;;;;;;24.69;50.91;98585.69;4468289;31;33781;-63
2023/07/02 02:48:57;;;;;;;10.85;5.95;;;;;;;24.56;51.14;98586.72;4467121;31;33546;-63
2023/07/02 02:51:25;;;;;;;8.40;4.78;;;;;;;24.60;51.04;98589.81;4472839;31;33518;-63
2023/07/02 02:53:53;;;;;;;8.48;4.72;;;;;;;25.05;49.80;98584.66;4471990;31;34959;-63
2023/07/02 02:56:21;;;;;;;10.25;5.43;;;;;;;24.72;50.86;98584.34;4477421;31;33996;-63
2023/07/02 02:58:48;;;;;;;10.60;5.25;;;;;;;24.60;50.92;98579.72;4472206;31;33609;-63
2023/07/02 03:01:16;;;;;;;12.02;5.32;;;;;;;24.56;50.72;98584.00;4475374;31;33325;-66
2023/07/02 03:03:45;;;;;;;11.60;5.32;;;;;;;24.40;51.54;98585.44;4468431;31;33872;-63
2023/07/02 03:06:16;;;;;;;11.12;5.07;;;;;;;25.02;49.54;98584.31;4480224;31;34003;-63
2023/07/02 03:08:44;;;;;;;9.60;5.35;;;;;;;25.13;49.12;98577.19;4474989;31;34026;-63
2023/07/02 03:11:12;;;;;;;11.85;4.97;;;;;;;24.98;49.29;98583.13;4473828;31;33910;-62
2023/07/02 03:13:39;;;;;;;8.63;4.82;;;;;;;24.92;49.52;98586.81;4470794;31;33799;-64
2023/07/02 03:16:07;;;;;;;10.00;5.62;;;;;;;24.43;50.61;98589.66;4478920;31;32485;-63
2023/07/02 03:18:35;;;;;;;9.50;4.12;;;;;;;24.94;49.23;98590.13;4471141;31;34682;-64
2023/07/02 03:21:02;;;;;;;10.55;5.10;;;;;;;24.54;50.20;98590.75;4470792;31;33457;-63
2023/07/02 03:23:30;;;;;;;9.70;3.95;;;;;;;24.00;51.36;98592.50;4477448;31;34087;-63
2023/07/02 03:25:57;;;;;;;10.13;4.68;;;;;;;24.58;50.14;98591.94;4470782;31;35406;-64
2023/07/02 03:28:25;;;;;;;7.32;3.78;;;;;;;24.55;50.09;98587.78;4471764;31;33709;-64
2023/07/02 03:30:53;;;;;;;12.73;5.35;;;;;;;24.87;48.95;98592.97;4471088;31;33061;-63
2023/07/02 03:33:20;;;;;;;7.03;4.35;;;;;;;24.57;49.66;98593.03;4480752;31;34007;-63
2023/07/02 03:35:48;;;;;;;9.27;4.87;;;;;;;24.59;49.44;98599.06;4470981;31;33560;-64
2023/07/02 03:38:15;;;;;;;9.48;4.18;;;;;;;24.71;49.07;98599.94;4476982;31;33612;-64
2023/07/02 03:40:43;;;;;;;8.10;3.70;;;;;;;24.74;49.01;98599.47;4468841;31;34420;-63
2023/07/02 03:43:11;;;;;;;11.00;4.78;;;;;;;24.97;48.21;98606.91;4478031;32;33691;-64
2023/07/02 03:45:38;;;;;;;8.43;4.57;;;;;;;24.63;48.97;98609.34;4470549;31;32402;-64
2023/07/02 03:48:06;;;;;;;5.97;3.40;;;;;;;24.42;49.41;98614.47;4472237;31;34235;-64
2023/07/02 03:50:33;;;;;;;8.20;2.92;;;;;;;24.66;48.71;98610.78;4470404;31;34289;-64
2023/07/02 03:53:01;;;;;;;6.50;3.35;;;;;;;24.42;49.17;98617.22;4473222;31;34660;-63
2023/07/02 03:55:29;;;;;;;5.85;3.45;;;;;;;24.11;50.07;98614.44;4470523;31;33792;-63
2023/07/02 03:57:56;;;;;;;6.60;3.25;;;;;;;23.77;50.94;98618.62;4474610;31;33392;-64
2023/07/02 04:00:24;;;;;;;6.82;3.50;;;;;;;24.50;48.99;98609.53;4468597;31;33361;-64
2023/07/02 04:02:52;;;;;;;6.45;3.25;;;;;;;24.30;49.30;98611.66;4470860;31;33329;-63
2023/07/02 04:05:22;;;;;;;10.32;4.00;;;;;;;24.54;48.73;98623.56;4474853;31;35044;-63
2023/07/02 04:07:50;;;;;;;7.22;4.05;;;;;;;24.66;48.56;98621.72;4473027;31;33685;-63
2023/07/02 04:10:17;;;;;;;6.97;3.83;;;;;;;24.36;48.99;98617.03;4483468;31;34215;-63
2023/07/02 04:12:45;;;;;;;8.02;3.67;;;;;;;24.84;47.90;98623.53;4474621;31;33491;-62
2023/07/02 04:15:12;;;;;;;7.53;3.42;;;;;;;24.94;47.64;98625.69;4473470;31;35072;-62
2023/07/02 04:17:40;;;;;;;5.80;2.80;;;;;;;25.21;46.97;98621.50;4472975;31;33412;-63
2023/07/02 04:20:09;;;;;;;5.70;2.80;;;;;;;24.82;48.10;98632.00;4473884;31;35028;-63
2023/07/02 04:22:37;;;;;;;4.55;2.78;;;;;;;25.17;47.17;98627.66;4472258;31;34539;-63
2023/07/02 04:25:05;;;;;;;9.48;4.07;;;;;;;24.36;48.75;98627.97;4469724;31;34135;-63
2023/07/02 04:27:56;;;;;;;7.18;3.55;;;;;;;24.68;47.84;98637.88;4472187;31;33747;-63
2023/07/02 04:30:25;;;;;;;6.28;3.22;;;;;;;24.12;48.90;98640.72;4473308;31;33098;-63
2023/07/02 04:32:52;;;;;;;6.05;3.08;;;;;;;24.60;47.97;98639.06;4467975;31;34915;-63
2023/07/02 04:35:20;;;;;;;8.02;4.10;;;;;;;24.74;47.87;98643.25;4476969;31;34259;-63
2023/07/02 04:37:47;;;;;;;6.05;3.72;;;;;;;24.60;48.25;98639.88;4469319;31;34746;-63
2023/07/02 04:40:15;;;;;;;7.20;3.72;;;;;;;24.66;48.10;98645.50;4474780;31;34022;-63
2023/07/02 04:42:49;;;;;;;8.32;3.80;;;;;;;24.97;47.58;98644.37;4473511;31;33965;-62
2023/07/02 04:45:16;;;;;;;5.85;3.53;;;;;;;25.12;47.26;98644.81;4476369;31;34478;-63
2023/07/02 04:47:45;;;;;;;5.15;3.12;;;;;;;25.51;46.32;98645.19;4475153;31;33660;-63
2023/07/02 04:50:12;;;;;;;5.35;2.92;;;;;;;25.00;47.42;98652.97;4477014;31;33416;-63
2023/07/02 04:52:41;;;;;;;6.03;3.62;;;;;;;25.23;46.71;98648.62;4471856;31;33037;-62
2023/07/02 04:55:09;;;;;;;6.35;3.47;;;;;;;24.76;47.63;98652.09;4472684;31;33759;-62
2023/07/02 04:57:37;;;;;;;11.10;3.70;;;;;;;24.96;47.23;98650.94;4470424;31;34635;-61
2023/07/02 05:00:08;;;;;;;7.90;3.47;;;;;;;24.91;47.23;98653.53;4472732;31;31998;-62
2023/07/02 05:02:36;;;;;;;4.72;2.87;;;;;;;24.40;48.46;98656.56;4470076;31;33779;-62
2023/07/02 05:05:04;;;;;;;4.70;3.00;;;;;;;24.83;47.77;98661.03;4466924;31;35355;-62
2023/07/02 05:07:31;;;;;;;6.62;3.25;;;;;;;24.59;47.83;98657.38;4475406;31;33953;-62
2023/07/02 05:09:59;;;;;;;5.93;3.25;;;;;;;25.08;47.10;98665.50;4476004;31;33854;-62
2023/07/02 05:12:26;;;;;;;5.75;3.28;;;;;;;24.63;48.12;98668.69;4473919;32;33822;-62
2023/07/02 05:14:54;;;;;;;4.97;3.25;;;;;;;24.50;48.61;98668.88;4479730;31;32788;-62
2023/07/02 05:17:22;;;;;;;5.60;2.97;;;;;;;24.44;48.68;98667.06;4470469;31;33569;-67
2023/07/02 05:19:49;;;;;;;4.62;2.97;;;;;;;24.09;49.31;98670.41;4474947;31;32963;-62
2023/07/02 05:22:17;;;;;;;8.02;3.55;;;;;;;23.53;50.96;98677.69;4473353;31;33560;-63
2023/07/02 05:24:46;;;;;;;10.63;3.47;;;;;;;24.03;50.06;98671.31;4477739;31;34142;-62
2023/07/02 05:27:13;;;;;;;6.62;3.50;;;;;;;24.05;49.58;98669.19;4469142;32;35135;-62
2023/07/02 05:29:42;;;;;;;7.62;2.92;;;;;;;24.30;49.26;98672.66;4474040;31;33294;-62
2023/07/02 05:32:10;;;;;;;7.57;3.72;;;;;;;24.10;49.83;98669.31;4477516;31;33753;-61
2023/07/02 05:34:37;;;;;;;6.43;3.35;;;;;;;24.26;49.49;98670.59;4473821;31;33850;-62
2023/07/02 05:37:06;;;;;;;7.25;3.30;;;;;;;24.46;49.09;98676.69;4476386;31;33630;-62
2023/07/02 05:39:34;;;;;;;11.75;3.83;;;;;;;24.26;49.34;98676.91;4475546;31;33373;-62
2023/07/02 05:42:01;;;;;;;10.70;3.40;;;;;;;24.13;49.32;98672.44;4468022;32;35483;-62
2023/07/02 05:44:29;;;;;;;7.62;3.33;;;;;;;24.12;49.52;98673.50;4471164;32;33823;-62
2023/07/02 05:46:56;;;;;;;5.53;2.35;;;;;;;23.56;50.98;98674.47;4470901;31;34032;-63
2023/07/02 05:49:24;;;;;;;5.53;2.50;;;;;;;24.14;49.70;98676.00;4470690;31;32928;-63
2023/07/02 05:51:52;;;;;;;6.97;3.58;;;;;;;23.92;50.59;98678.38;4467866;32;34725;-62
2023/07/02 05:54:19;;;;;;;8.57;3.22;;;;;;;23.81;50.63;98674.47;4472457;31;34044;-63
2023/07/02 05:56:47;;;;;;;7.62;3.17;;;;;;;23.66;50.61;98676.72;4479213;32;33643;-63
2023/07/02 05:59:17;;;;;;;6.55;3.20;;;;;;;24.05;50.00;98677.41;4471098;31;33091;-63
2023/07/02 06:01:45;;;;;;;5.60;2.97;;;;;;;23.67;51.11;98678.38;4470319;31;35461;-62
2023/07/02 06:04:13;;;;;;;7.97;3.40;;;;;;;23.87;50.73;98686.41;4478332;31;34089;-63
2023/07/02 06:06:40;;;;;;;6.30;3.95;;;;;;;23.63;51.54;98685.38;4475996;31;34992;-62
2023/07/02 06:09:08;;;;;;;5.45;3.12;;;;;;;23.57;51.15;98681.63;4469688;31;33241;-63
2023/07/02 06:11:35;;;;;;;5.93;3.15;;;;;;;23.82;50.95;98686.22;4476065;31;33872;-66
2023/07/02 06:14:03;;;;;;;5.65;2.45;;;;;;;23.43;51.46;98685.53;4480409;31;33823;-63
2023/07/02 06:16:30;;;;;;;6.68;2.87;;;;;;;23.77;50.73;98683.37;4471529;31;33931;-62
2023/07/02 06:18:58;;;;;;;5.75;3.10;;;;;;;23.84;51.15;98679.50;4470607;31;33440;-62
2023/07/02 06:21:29;;;;;;;5.75;2.85;;;;;;;23.87;51.01;98689.97;4471033;31;34503;-63
2023/07/02 06:23:58;;;;;;;5.80;3.05;;;;;;;24.12;50.53;98683.59;4474856;31;35053;-63
2023/07/02 06:26:26;;;;;;;7.85;3.90;;;;;;;23.82;51.25;98691.69;4481030;31;34002;-63
2023/07/02 06:28:53;;;;;;;5.57;2.90;;;;;;;24.14;50.94;98690.53;4475216;31;34321;-63
2023/07/02 06:31:21;;;;;;;7.28;3.60;;;;;;;23.72;51.45;98686.75;4466613;31;34682;-62
2023/07/02 06:33:49;;;;;;;6.60;3.65;;;;;;;24.07;50.73;98691.66;4469318;31;33781;-62
2023/07/02 06:36:17;;;;;;;4.85;2.78;;;;;;;24.30;50.16;98700.00;4474294;31;33715;-63
2023/07/02 06:38:45;;;;;;;5.70;3.00;;;;;;;24.53;49.81;98698.50;4474860;31;33553;-62
2023/07/02 06:41:13;;;;;;;4.87;2.80;;;;;;;24.26;50.62;98698.78;4473853;31;34532;-63
2023/07/02 06:43:43;;;;;;;10.18;4.18;;;;;;;24.73;49.31;98700.97;4477589;31;32578;-63
2023/07/02 06:46:11;;;;;;;5.87;3.35;;;;;;;24.61;49.97;98704.47;4469354;31;33939;-62
2023/07/02 06:48:39;;;;;;;6.87;3.00;;;;;;;24.97;49.00;98701.88;4471783;31;33371;-63
2023/07/02 06:51:07;;;;;;;8.10;3.75;;;;;;;24.61;49.81;98706.37;4467783;31;34165;-63
2023/07/02 06:53:36;;;;;;;8.38;3.20;;;;;;;24.99;48.93;98707.97;4476423;31;35236;-63
2023/07/02 06:56:04;;;;;;;8.07;3.00;;;;;;;25.47;48.28;98712.50;4469178;31;33591;-63
2023/07/02 06:58:32;;;;;;;8.27;2.60;;;;;;;25.37;48.93;98709.50;4471792;31;33059;-63
2023/07/02 07:00:59;;;;;;;9.95;3.92;;;;;;;25.23;49.47;98715.22;4471336;31;33915;-63
2023/07/02 07:03:27;;;;;;;12.68;3.78;;;;;;;24.99;50.49;98714.25;4467272;31;33779;-62
2023/07/02 07:05:55;;;;;;;5.68;3.10;;;;;;;25.04;50.67;98722.63;4471743;31;33217;-63
2023/07/02 07:08:22;;;;;;;4.07;2.30;;;;;;;24.96;50.04;98719.38;4471492;31;34720;-62
2023/07/02 07:10:50;;;;;;;7.90;2.70;;;;;;;24.90;49.08;98723.03;4472813;31;33696;-63
2023/07/02 07:13:19;;;;;;;4.43;2.55;;;;;;;25.36;47.15;98722.38;4478543;31;35020;-62
2023/07/02 07:15:46;;;;;;;5.95;2.33;;;;;;;25.41;46.67;98727.97;4468434;31;34542;-63
2023/07/02 07:18:14;;;;;;;5.93;2.30;;;;;;;25.16;46.37;98728.16;4474080;31;33038;-63
2023/07/02 07:20:42;;;;;;;4.90;2.70;;;;;;;24.67;47.41;98730.06;4471641;31;34709;-63
2023/07/02 07:23:09;;;;;;;4.62;2.30;;;;;;;24.45;48.55;98735.19;4482009;31;35236;-62
2023/07/02 07:25:37;;;;;;;4.50;2.55;;;;;;;24.93;47.16;98726.13;4472622;31;33555;-63
2023/07/02 07:28:04;;;;;;;5.62;2.83;;;;;;;25.14;47.06;98732.22;4477993;31;33520;-63
2023/07/02 07:30:32;;;;;;;4.25;2.28;;;;;;;25.02;48.01;98730.22;4479015;31;33410;-62
2023/07/02 07:33:00;;;;;;;5.18;2.90;;;;;;;24.76;48.01;98736.91;4470581;31;33792;-63
2023/07/02 07:35:28;;;;;;;4.00;2.40;;;;;;;25.41;47.70;98738.91;4472185;31;34319;-63
2023/07/02 07:37:55;;;;;;;8.00;3.22;;;;;;;25.61;47.33;98741.34;4468891;31;34045;-63
2023/07/02 07:40:23;;;;;;;4.20;2.25;;;;;;;25.91;46.58;98737.72;4468775;31;34898;-63
2023/07/02 07:42:50;;;;;;;8.05;2.97;;;;;;;26.20;46.61;98736.72;4476071;31;35045;-63
2023/07/02 07:45:18;;;;;;;6.43;2.62;;;;;;;26.47;45.98;98738.94;4478182;31;34445;-63
2023/07/02 07:47:46;;;;;;;5.10;2.97;;;;;;;26.21;45.80;98743.87;4466953;31;33893;-63
2023/07/02 07:50:13;;;;;;;8.65;3.58;;;;;;;26.23;44.85;98746.38;4468597;31;95526;-63
2023/07/02 07:52:42;;;;;;;5.53;3.08;;;;;;;26.29;45.50;98744.56;4472708;31;33583;-63
2023/07/02 07:55:10;;;;;;;7.45;3.03;;;;;;;26.37;44.59;98752.44;4472678;31;33920;-63
2023/07/02 07:57:38;;;;;;;6.00;3.25;;;;;;;26.06;45.25;98754.47;4479028;31;32740;-63
2023/07/02 08:00:12;;;;;;;5.15;3.05;;;;;;;26.06;44.99;98757.22;4480790;31;34997;-63
2023/07/02 08:02:49;;;;;;;7.10;2.85;;;;;;;26.46;44.31;98754.56;4473972;31;33921;-63
2023/07/02 08:05:17;;;;;;;12.02;3.40;;;;;;;26.13;45.02;98763.44;4475487;31;33530;-63
2023/07/02 08:07:44;;;;;;;5.12;2.53;;;;;;;26.04;45.55;98769.53;4475193;31;33498;-63
2023/07/02 08:10:12;;;;;;;5.90;2.60;;;;;;;26.25;45.03;98771.66;4467032;31;33499;-63
2023/07/02 08:12:40;;;;;;;4.82;2.65;;;;;;;26.51;43.94;98775.81;4472331;31;34768;-63
2023/07/02 08:15:07;;;;;;;3.97;1.98;;;;;;;26.20;43.49;98780.59;4477399;31;34795;-63
2023/07/02 08:17:35;;;;;;;5.93;2.55;;;;;;;25.46;45.56;98782.06;4469601;32;33120;-62
2023/07/02 08:20:09;;;;;;;4.18;2.45;;;;;;;25.92;44.38;98785.97;4468955;31;33641;-63
2023/07/02 08:22:40;;;;;;;5.32;2.55;;;;;;;26.47;43.51;98788.31;4474271;31;34791;-63
2023/07/02 08:25:08;;;;;;;5.68;3.03;;;;;;;26.22;43.77;98786.66;4472312;31;33525;-63
2023/07/02 08:27:36;;;;;;;7.65;2.83;;;;;;;26.20;43.55;98797.06;4466852;31;34153;-63
2023/07/02 08:30:04;;;;;;;5.45;2.47;;;;;;;26.15;43.52;98798.84;4469271;31;32489;-63
2023/07/02 08:32:33;;;;;;;5.60;2.65;;;;;;;26.34;43.17;98800.38;4473043;31;34177;-63
2023/07/02 08:35:01;;;;;;;5.68;2.55;;;;;;;26.33;43.67;98790.50;4468403;31;33915;-63
2023/07/02 08:37:28;;;;;;;5.65;3.15;;;;;;;26.34;43.15;98796.81;4471650;31;36350;-63
2023/07/02 08:39:56;;;;;;;3.95;2.17;;;;;;;26.75;42.71;98790.31;4470213;31;34933;-63
2023/07/02 08:42:24;;;;;;;4.70;2.70;;;;;;;26.46;43.28;98795.72;4472730;31;34958;-63
2023/07/02 08:44:54;;;;;;;7.90;2.53;;;;;;;26.94;42.46;98794.56;4468042;31;33479;-63
2023/07/02 08:47:22;;;;;;;5.32;3.25;;;;;;;27.13;42.26;98789.75;4472686;31;33465;-63
2023/07/02 08:49:49;;;;;;;5.25;2.75;;;;;;;26.98;41.98;98792.16;4466379;31;35091;-63
2023/07/02 08:52:17;;;;;;;7.30;2.80;;;;;;;27.09;42.25;98790.44;4474108;31;34878;-63
2023/07/02 08:54:45;;;;;;;5.22;2.85;;;;;;;26.74;42.90;98791.38;4473401;31;33783;-63
2023/07/02 08:57:12;;;;;;;10.82;3.35;;;;;;;26.62;42.91;98796.09;4475807;31;33293;-62
2023/07/02 08:59:40;;;;;;;4.95;3.00;;;;;;;26.31;42.64;98792.62;4467977;31;34713;-60
2023/07/02 09:02:08;;;;;;;5.65;3.15;;;;;;;26.84;43.30;98799.84;4471443;31;33806;-60
2023/07/02 09:04:36;;;;;;;8.13;3.10;;;;;;;26.98;42.02;98785.84;4477130;31;33556;-60
2023/07/02 09:07:03;;;;;;;5.80;2.80;;;;;;;27.38;41.66;98789.37;4470084;31;33370;-60
2023/07/02 09:09:31;;;;;;;6.28;3.17;;;;;;;27.84;41.32;98786.63;4474337;31;34570;-60
2023/07/02 09:11:59;;;;;;;6.82;3.40;;;;;;;27.83;41.83;98788.53;4472994;31;34092;-60
2023/07/02 09:14:30;;;;;;;5.87;3.15;;;;;;;27.76;40.53;98789.75;4462166;31;34088;-60
2023/07/02 09:17:16;;;;;;;7.85;4.22;;;;;;;27.80;40.53;98788.19;4471470;31;33446;-60
2023/07/02 09:19:51;;;;;;;8.40;3.83;;;;;;;27.81;40.13;98790.69;4479237;31;34278;-60
2023/07/02 09:22:19;;;;;;;10.63;3.97;;;;;;;28.20;40.09;98798.16;4479643;31;35038;-60
2023/07/02 09:24:59;;;;;;;4.72;2.62;;;;;;;27.86;40.62;98793.53;4479636;31;33329;-60
2023/07/02 09:27:41;;;;;;;4.60;3.12;;;;;;;28.48;39.20;98800.81;4474084;31;33384;-60
2023/07/02 09:30:15;;;;;;;6.78;4.03;;;;;;;28.44;39.86;98802.38;4475409;31;33102;-60
2023/07/02 09:32:44;;;;;;;5.50;3.17;;;;;;;28.33;40.23;98790.38;4477789;31;35160;-60
2023/07/02 09:35:13;;;;;;;7.40;4.30;;;;;;;28.08;39.80;98793.59;4480245;31;34990;-60
2023/07/02 09:37:43;;;;;;;7.72;3.47;;;;;;;28.38;39.88;98795.16;4477559;31;33504;-60
2023/07/02 09:40:11;;;;;;;4.62;2.37;;;;;;;28.10;40.23;98794.19;4473132;31;33673;-60
2023/07/02 09:42:40;;;;;;;6.32;3.10;;;;;;;28.18;39.51;98798.41;4470738;31;32657;-62
2023/07/02 09:45:10;;;;;;;5.62;3.20;;;;;;;28.84;37.99;98790.25;4468273;31;34809;-62
2023/07/02 09:47:45;;;;;;;6.10;3.15;;;;;;;29.13;37.06;98792.81;4469718;31;33260;-62
2023/07/02 09:50:14;;;;;;;4.97;2.70;;;;;;;29.12;38.00;98789.25;4479726;31;33843;-62
2023/07/02 09:52:44;;;;;;;7.37;4.00;;;;;;;29.20;37.89;98790.69;4475441;31;35259;-63
2023/07/02 09:55:12;;;;;;;7.53;3.75;;;;;;;29.19;35.99;98791.78;4480089;31;33748;-63
2023/07/02 09:57:40;;;;;;;6.55;3.35;;;;;;;29.12;37.59;98796.69;4475311;31;33288;-63
2023/07/02 10:00:08;;;;;;;5.68;2.78;;;;;;;29.00;38.06;98791.28;4472720;31;33781;-63
2023/07/02 10:02:38;;;;;;;6.32;3.55;;;;;;;28.75;37.70;98802.81;4478678;31;34032;-63
2023/07/02 10:05:05;;;;;;;5.53;3.08;;;;;;;29.49;36.69;98794.84;4478635;31;33915;-63
2023/07/02 10:07:33;;;;;;;4.97;3.05;;;;;;;29.58;37.33;98805.41;4476430;31;33340;-61
2023/07/02 10:10:01;;;;;;;5.60;2.55;;;;;;;30.17;35.82;98799.84;4476478;31;33618;-62
2023/07/02 10:12:30;;;;;;;3.87;2.40;;;;;;;30.21;34.64;98802.94;4476791;31;33970;-63
2023/07/02 10:14:58;;;;;;;5.93;3.53;;;;;;;30.32;35.68;98802.72;4476725;31;34283;-63
2023/07/02 10:17:34;;;;;;;7.50;3.25;;;;;;;30.02;36.55;98797.00;4476231;31;34424;-61
2023/07/02 10:20:13;;;;;;;5.43;2.92;;;;;;;29.98;35.84;98798.59;4477945;31;34352;-61
2023/07/02 10:22:52;;;;;;;6.43;3.70;;;;;;;30.30;36.07;98798.56;4473595;31;33939;-61
2023/07/02 10:25:26;;;;;;;7.12;3.58;;;;;;;30.03;36.17;98793.12;4469950;31;33200;-62
2023/07/02 10:27:55;;;;;;;7.03;3.47;;;;;;;30.35;36.13;98787.56;4475723;31;32821;-62
2023/07/02 10:30:38;;;;;;;7.10;3.75;;;;;;;30.76;34.73;98801.59;4471502;31;33158;-63
2023/07/02 10:33:14;;;;;;;6.72;3.40;;;;;;;30.25;35.38;98788.34;4477034;31;35170;-63
2023/07/02 10:35:47;;;;;;;6.18;2.85;;;;;;;30.16;35.07;98789.91;4476028;31;34251;-63
2023/07/02 10:38:20;;;;;;;4.80;2.67;;;;;;;30.73;34.36;98791.09;4469102;31;33259;-63
2023/07/02 10:40:55;;;;;;;6.72;2.65;;;;;;;30.32;34.80;98780.66;4468690;31;34023;-63
2023/07/02 10:43:30;;;;;;;5.68;3.00;;;;;;;30.64;34.37;98776.97;4476622;31;35526;-63
2023/07/02 10:46:04;;;;;;;5.60;3.35;;;;;;;30.74;34.11;98770.66;4471275;31;33876;-63
2023/07/02 10:48:32;;;;;;;;;;;;;;;30.83;34.96;98786.47;4470182;31;33063;-63
2023/07/02 10:51:11;;;;;;;7.68;3.72;;;;;;;30.58;34.39;98783.56;4473305;31;34200;-62
2023/07/02 10:53:38;;;;;;;6.07;2.83;;;;;;;30.61;34.33;98778.31;4474413;31;34102;-63
2023/07/02 10:56:06;;;;;;;6.68;2.87;;;;;;;30.29;35.08;98780.34;4467837;31;32670;-63
2023/07/02 10:58:41;;;;;;;6.72;2.70;;;;;;;30.54;34.61;98777.75;4463539;31;33346;-63
2023/07/02 11:01:09;;;;;;;6.25;3.40;;;;;;;30.58;33.90;98772.50;4467485;31;34921;-63
2023/07/02 11:03:39;;;;;;;6.85;3.42;;;;;;;29.70;35.97;98792.31;4468448;31;34781;-63
2023/07/02 11:06:06;;;;;;;9.27;3.22;;;;;;;29.88;35.91;98786.38;4475398;31;33354;-63
2023/07/02 11:08:35;;;;;;;6.60;2.87;;;;;;;29.74;36.25;98779.66;4476354;31;34049;-64
2023/07/02 11:11:07;;;;;;;5.43;2.70;;;;;;;30.24;35.23;98783.94;4472120;31;35236;-63
2023/07/02 11:13:47;;;;;;;5.43;2.90;;;;;;;29.63;36.02;98772.38;4475078;31;33813;-63
2023/07/02 11:16:29;;;;;;;5.70;2.55;;;;;;;29.69;35.87;98779.59;4472228;31;34448;-63
2023/07/02 11:19:08;;;;;;;7.28;3.70;;;;;;;29.73;35.58;98772.50;4474651;31;33179;-63
2023/07/02 11:21:36;;;;;;;23.77;3.12;;;;;;;29.14;36.41;98770.50;4474210;31;33773;-63
2023/07/02 11:24:06;;;;;;;6.07;3.10;;;;;;;29.77;36.06;98773.63;4477090;31;34937;-63
2023/07/02 11:26:41;;;;;;;4.95;2.78;;;;;;;29.91;35.10;98774.81;4472268;31;33483;-64
2023/07/02 11:29:12;;;;;;;5.32;3.20;;;;;;;30.09;35.20;98776.34;4471947;31;33750;-64
2023/07/02 11:31:39;;;;;;;6.05;2.70;;;;;;;30.37;34.25;98764.13;4477644;31;34974;-63
2023/07/02 11:34:18;;;;;;;5.22;2.92;;;;;;;29.95;34.77;98772.38;4477565;32;34710;-66
2023/07/02 11:36:48;;;;;;;6.05;3.33;;;;;;;29.70;35.92;98771.09;4472482;31;34622;-63
2023/07/02 11:39:15;;;;;;;6.53;3.47;;;;;;;30.08;35.86;98765.56;4470636;31;36437;-64